sensor_id;sensor_type;location;lat;lon;timestamp;temperature;humidity
19088;DHT22;9676;50.916;13.352;2023-04-16T00:02:24;11.20;84.70
19088;DHT22;9676;50.916;13.352;2023-04-16T00:05:14;11.20;85.00
19088;DHT22;9676;50.916;13.352;2023-04-16T00:08:03;11.20;84.90
19088;DHT22;9676;50.916;13.352;2023-04-16T00:10:53;11.30;85.20
19088;DHT22;9676;50.916;13.352;2023-04-16T00:13:42;11.30;85.30
19088;DHT22;9676;50.916;13.352;2023-04-16T00:16:32;11.30;85.20
19088;DHT22;9676;50.916;13.352;2023-04-16T00:19:23;11.30;85.10
19088;DHT22;9676;50.916;13.352;2023-04-16T00:22:13;11.30;85.20
19088;DHT22;9676;50.916;13.352;2023-04-16T00:25:02;11.40;84.70
19088;DHT22;9676;50.916;13.352;2023-04-16T00:27:52;11.40;84.40
19088;DHT22;9676;50.916;13.352;2023-04-16T00:30:42;11.30;84.00
19088;DHT22;9676;50.916;13.352;2023-04-16T00:33:31;11.30;83.80
19088;DHT22;9676;50.916;13.352;2023-04-16T00:36:22;11.30;83.60
19088;DHT22;9676;50.916;13.352;2023-04-16T00:39:12;11.30;83.60
19088;DHT22;9676;50.916;13.352;2023-04-16T00:42:02;11.20;82.90
19088;DHT22;9676;50.916;13.352;2023-04-16T00:44:52;11.20;82.90
19088;DHT22;9676;50.916;13.352;2023-04-16T00:47:41;11.20;83.10
19088;DHT22;9676;50.916;13.352;2023-04-16T00:50:31;11.10;83.30
19088;DHT22;9676;50.916;13.352;2023-04-16T00:53:22;11.10;83.50
19088;DHT22;9676;50.916;13.352;2023-04-16T00:56:13;11.00;83.70
19088;DHT22;9676;50.916;13.352;2023-04-16T00:59:04;11.00;83.30
19088;DHT22;9676;50.916;13.352;2023-04-16T01:01:54;10.90;83.30
19088;DHT22;9676;50.916;13.352;2023-04-16T01:04:44;10.90;83.20
19088;DHT22;9676;50.916;13.352;2023-04-16T01:07:33;10.90;83.20
19088;DHT22;9676;50.916;13.352;2023-04-16T01:10:24;10.80;82.90
19088;DHT22;9676;50.916;13.352;2023-04-16T01:13:13;10.80;83.10
19088;DHT22;9676;50.916;13.352;2023-04-16T01:16:03;10.70;82.50
19088;DHT22;9676;50.916;13.352;2023-04-16T01:18:52;10.70;82.40
19088;DHT22;9676;50.916;13.352;2023-04-16T01:21:43;10.70;82.40
19088;DHT22;9676;50.916;13.352;2023-04-16T01:24:33;10.60;82.90
19088;DHT22;9676;50.916;13.352;2023-04-16T01:27:23;10.50;82.90
19088;DHT22;9676;50.916;13.352;2023-04-16T01:30:13;10.50;83.20
19088;DHT22;9676;50.916;13.352;2023-04-16T01:33:14;10.50;83.50
19088;DHT22;9676;50.916;13.352;2023-04-16T01:36:05;10.40;83.60
19088;DHT22;9676;50.916;13.352;2023-04-16T01:38:56;10.40;83.70
19088;DHT22;9676;50.916;13.352;2023-04-16T01:41:46;10.40;84.20
19088;DHT22;9676;50.916;13.352;2023-04-16T01:44:36;10.40;83.80
19088;DHT22;9676;50.916;13.352;2023-04-16T01:47:25;10.40;83.60
19088;DHT22;9676;50.916;13.352;2023-04-16T01:50:15;10.30;83.80
19088;DHT22;9676;50.916;13.352;2023-04-16T01:53:05;10.30;83.10
19088;DHT22;9676;50.916;13.352;2023-04-16T01:55:55;10.20;82.70
19088;DHT22;9676;50.916;13.352;2023-04-16T01:58:45;10.20;83.30
19088;DHT22;9676;50.916;13.352;2023-04-16T02:01:36;10.20;82.70
19088;DHT22;9676;50.916;13.352;2023-04-16T02:04:26;10.10;82.50
19088;DHT22;9676;50.916;13.352;2023-04-16T02:07:15;10.10;82.60
19088;DHT22;9676;50.916;13.352;2023-04-16T02:10:05;10.00;82.80
19088;DHT22;9676;50.916;13.352;2023-04-16T02:13:00;10.00;82.90
19088;DHT22;9676;50.916;13.352;2023-04-16T02:15:51;10.00;83.10
19088;DHT22;9676;50.916;13.352;2023-04-16T02:18:51;9.90;83.90
19088;DHT22;9676;50.916;13.352;2023-04-16T02:21:42;9.90;83.70
19088;DHT22;9676;50.916;13.352;2023-04-16T02:24:32;9.80;83.90
19088;DHT22;9676;50.916;13.352;2023-04-16T02:27:25;9.80;84.30
19088;DHT22;9676;50.916;13.352;2023-04-16T02:30:23;9.70;84.40
19088;DHT22;9676;50.916;13.352;2023-04-16T02:33:13;9.70;85.20
19088;DHT22;9676;50.916;13.352;2023-04-16T02:36:14;9.70;84.90
19088;DHT22;9676;50.916;13.352;2023-04-16T02:39:04;9.70;84.80
19088;DHT22;9676;50.916;13.352;2023-04-16T02:41:53;9.70;84.90
19088;DHT22;9676;50.916;13.352;2023-04-16T02:44:43;9.60;85.00
19088;DHT22;9676;50.916;13.352;2023-04-16T02:47:33;9.60;84.90
19088;DHT22;9676;50.916;13.352;2023-04-16T02:50:23;9.60;85.20
19088;DHT22;9676;50.916;13.352;2023-04-16T02:53:12;9.50;85.10
19088;DHT22;9676;50.916;13.352;2023-04-16T02:56:02;9.50;85.70
19088;DHT22;9676;50.916;13.352;2023-04-16T02:58:51;9.50;86.00
19088;DHT22;9676;50.916;13.352;2023-04-16T03:01:41;9.50;86.30
19088;DHT22;9676;50.916;13.352;2023-04-16T03:04:33;9.50;86.40
19088;DHT22;9676;50.916;13.352;2023-04-16T03:07:22;9.50;87.40
19088;DHT22;9676;50.916;13.352;2023-04-16T03:10:12;9.40;86.80
19088;DHT22;9676;50.916;13.352;2023-04-16T03:13:02;9.50;87.00
19088;DHT22;9676;50.916;13.352;2023-04-16T03:15:52;9.50;86.80
19088;DHT22;9676;50.916;13.352;2023-04-16T03:18:41;9.50;86.80
19088;DHT22;9676;50.916;13.352;2023-04-16T03:21:32;9.40;86.90
19088;DHT22;9676;50.916;13.352;2023-04-16T03:24:21;9.50;87.40
19088;DHT22;9676;50.916;13.352;2023-04-16T03:27:11;9.50;87.10
19088;DHT22;9676;50.916;13.352;2023-04-16T03:30:00;9.50;87.20
19088;DHT22;9676;50.916;13.352;2023-04-16T03:32:52;9.50;87.10
19088;DHT22;9676;50.916;13.352;2023-04-16T03:35:42;9.50;87.00
19088;DHT22;9676;50.916;13.352;2023-04-16T03:38:34;9.50;86.80
19088;DHT22;9676;50.916;13.352;2023-04-16T03:41:23;9.50;87.30
19088;DHT22;9676;50.916;13.352;2023-04-16T03:44:13;9.50;87.10
19088;DHT22;9676;50.916;13.352;2023-04-16T03:47:02;9.50;87.10
19088;DHT22;9676;50.916;13.352;2023-04-16T03:49:51;9.50;86.90
19088;DHT22;9676;50.916;13.352;2023-04-16T03:52:41;9.50;86.80
19088;DHT22;9676;50.916;13.352;2023-04-16T03:55:33;9.50;86.80
19088;DHT22;9676;50.916;13.352;2023-04-16T03:58:23;9.40;87.10
19088;DHT22;9676;50.916;13.352;2023-04-16T04:01:13;9.40;86.30
19088;DHT22;9676;50.916;13.352;2023-04-16T04:04:02;9.40;86.30
19088;DHT22;9676;50.916;13.352;2023-04-16T04:06:52;9.40;86.20
19088;DHT22;9676;50.916;13.352;2023-04-16T04:09:42;9.30;86.20
19088;DHT22;9676;50.916;13.352;2023-04-16T04:12:32;9.30;86.20
19088;DHT22;9676;50.916;13.352;2023-04-16T04:15:22;9.30;86.60
19088;DHT22;9676;50.916;13.352;2023-04-16T04:18:11;9.30;86.20
19088;DHT22;9676;50.916;13.352;2023-04-16T04:21:04;9.30;86.40
19088;DHT22;9676;50.916;13.352;2023-04-16T04:23:54;9.30;87.00
19088;DHT22;9676;50.916;13.352;2023-04-16T04:26:43;9.20;86.90
19088;DHT22;9676;50.916;13.352;2023-04-16T04:29:35;9.20;87.30
19088;DHT22;9676;50.916;13.352;2023-04-16T04:32:25;9.20;88.10
19088;DHT22;9676;50.916;13.352;2023-04-16T04:35:15;9.20;88.10
19088;DHT22;9676;50.916;13.352;2023-04-16T04:38:04;9.30;88.60
19088;DHT22;9676;50.916;13.352;2023-04-16T04:40:54;9.30;89.10
19088;DHT22;9676;50.916;13.352;2023-04-16T04:43:46;9.30;89.50
19088;DHT22;9676;50.916;13.352;2023-04-16T04:46:38;9.40;90.00
19088;DHT22;9676;50.916;13.352;2023-04-16T04:49:27;9.40;90.60
19088;DHT22;9676;50.916;13.352;2023-04-16T04:52:17;9.50;91.00
19088;DHT22;9676;50.916;13.352;2023-04-16T04:55:08;9.60;91.80
19088;DHT22;9676;50.916;13.352;2023-04-16T04:57:57;9.80;92.50
19088;DHT22;9676;50.916;13.352;2023-04-16T05:00:47;9.90;92.80
19088;DHT22;9676;50.916;13.352;2023-04-16T05:03:37;10.10;92.90
19088;DHT22;9676;50.916;13.352;2023-04-16T05:06:27;10.30;93.60
19088;DHT22;9676;50.916;13.352;2023-04-16T05:09:16;10.50;94.30
19088;DHT22;9676;50.916;13.352;2023-04-16T05:12:05;10.80;93.50
19088;DHT22;9676;50.916;13.352;2023-04-16T05:14:55;11.00;92.40
19088;DHT22;9676;50.916;13.352;2023-04-16T05:17:44;11.10;91.70
19088;DHT22;9676;50.916;13.352;2023-04-16T05:20:35;11.30;91.30
19088;DHT22;9676;50.916;13.352;2023-04-16T05:23:24;11.40;91.00
19088;DHT22;9676;50.916;13.352;2023-04-16T05:26:13;11.50;90.80
19088;DHT22;9676;50.916;13.352;2023-04-16T05:29:03;11.50;90.70
19088;DHT22;9676;50.916;13.352;2023-04-16T05:31:52;11.60;90.50
19088;DHT22;9676;50.916;13.352;2023-04-16T05:34:41;11.70;90.20
19088;DHT22;9676;50.916;13.352;2023-04-16T05:37:32;11.80;90.20
19088;DHT22;9676;50.916;13.352;2023-04-16T05:40:22;11.90;90.40
19088;DHT22;9676;50.916;13.352;2023-04-16T05:43:11;12.00;91.30
19088;DHT22;9676;50.916;13.352;2023-04-16T05:46:00;12.20;92.90
19088;DHT22;9676;50.916;13.352;2023-04-16T05:48:50;12.40;93.90
19088;DHT22;9676;50.916;13.352;2023-04-16T05:51:39;12.70;94.10
19088;DHT22;9676;50.916;13.352;2023-04-16T05:54:30;12.90;94.00
19088;DHT22;9676;50.916;13.352;2023-04-16T05:57:19;13.20;93.90
19088;DHT22;9676;50.916;13.352;2023-04-16T06:00:09;13.50;95.00
19088;DHT22;9676;50.916;13.352;2023-04-16T06:02:58;13.80;96.00
19088;DHT22;9676;50.916;13.352;2023-04-16T06:05:48;14.10;96.20
19088;DHT22;9676;50.916;13.352;2023-04-16T06:08:37;14.50;95.40
19088;DHT22;9676;50.916;13.352;2023-04-16T06:11:28;14.80;95.20
19088;DHT22;9676;50.916;13.352;2023-04-16T06:14:18;15.20;95.00
19088;DHT22;9676;50.916;13.352;2023-04-16T06:17:07;15.50;94.20
19088;DHT22;9676;50.916;13.352;2023-04-16T06:19:57;15.80;93.10
19088;DHT22;9676;50.916;13.352;2023-04-16T06:22:46;16.00;92.10
19088;DHT22;9676;50.916;13.352;2023-04-16T06:25:35;16.20;91.00
19088;DHT22;9676;50.916;13.352;2023-04-16T06:28:26;16.30;90.10
19088;DHT22;9676;50.916;13.352;2023-04-16T06:31:15;16.40;88.40
19088;DHT22;9676;50.916;13.352;2023-04-16T06:34:05;16.50;87.80
19088;DHT22;9676;50.916;13.352;2023-04-16T06:36:54;16.50;86.50
19088;DHT22;9676;50.916;13.352;2023-04-16T06:39:44;16.60;85.40
19088;DHT22;9676;50.916;13.352;2023-04-16T06:42:33;16.60;84.80
19088;DHT22;9676;50.916;13.352;2023-04-16T06:45:24;16.60;84.50
19088;DHT22;9676;50.916;13.352;2023-04-16T06:48:13;16.60;84.30
19088;DHT22;9676;50.916;13.352;2023-04-16T06:51:03;16.60;84.80
19088;DHT22;9676;50.916;13.352;2023-04-16T06:53:52;16.60;84.60
19088;DHT22;9676;50.916;13.352;2023-04-16T06:56:42;16.60;84.50
19088;DHT22;9676;50.916;13.352;2023-04-16T06:59:31;16.60;84.30
19088;DHT22;9676;50.916;13.352;2023-04-16T07:02:23;16.70;84.10
19088;DHT22;9676;50.916;13.352;2023-04-16T07:05:12;16.70;83.30
19088;DHT22;9676;50.916;13.352;2023-04-16T07:08:02;16.80;84.00
19088;DHT22;9676;50.916;13.352;2023-04-16T07:10:52;16.80;84.30
19088;DHT22;9676;50.916;13.352;2023-04-16T07:13:41;16.90;84.80
19088;DHT22;9676;50.916;13.352;2023-04-16T07:16:31;17.00;85.50
19088;DHT22;9676;50.916;13.352;2023-04-16T07:19:21;17.10;86.00
19088;DHT22;9676;50.916;13.352;2023-04-16T07:22:11;17.20;86.10
19088;DHT22;9676;50.916;13.352;2023-04-16T07:25:00;17.40;87.10
19088;DHT22;9676;50.916;13.352;2023-04-16T07:27:50;17.60;87.50
19088;DHT22;9676;50.916;13.352;2023-04-16T07:30:39;17.80;87.80
19088;DHT22;9676;50.916;13.352;2023-04-16T07:33:29;18.00;88.20
19088;DHT22;9676;50.916;13.352;2023-04-16T07:36:20;18.20;88.20
19088;DHT22;9676;50.916;13.352;2023-04-16T07:39:09;18.40;87.40
19088;DHT22;9676;50.916;13.352;2023-04-16T07:42:00;18.60;87.80
19088;DHT22;9676;50.916;13.352;2023-04-16T07:44:49;18.90;87.70
19088;DHT22;9676;50.916;13.352;2023-04-16T07:47:38;19.10;87.40
19088;DHT22;9676;50.916;13.352;2023-04-16T07:50:28;19.30;86.80
19088;DHT22;9676;50.916;13.352;2023-04-16T07:53:19;19.40;85.90
19088;DHT22;9676;50.916;13.352;2023-04-16T07:56:08;19.60;84.50
19088;DHT22;9676;50.916;13.352;2023-04-16T07:58:58;19.80;84.40
19088;DHT22;9676;50.916;13.352;2023-04-16T08:02:05;19.90;83.40
19088;DHT22;9676;50.916;13.352;2023-04-16T08:04:55;20.00;82.10
19088;DHT22;9676;50.916;13.352;2023-04-16T08:07:45;20.00;81.00
19088;DHT22;9676;50.916;13.352;2023-04-16T08:10:36;20.10;79.90
19088;DHT22;9676;50.916;13.352;2023-04-16T08:13:25;20.10;78.40
19088;DHT22;9676;50.916;13.352;2023-04-16T08:16:15;20.10;78.00
19088;DHT22;9676;50.916;13.352;2023-04-16T08:19:04;20.10;77.40
19088;DHT22;9676;50.916;13.352;2023-04-16T08:21:55;20.00;76.60
19088;DHT22;9676;50.916;13.352;2023-04-16T08:24:44;20.00;76.30
19088;DHT22;9676;50.916;13.352;2023-04-16T08:27:35;20.00;76.20
19088;DHT22;9676;50.916;13.352;2023-04-16T08:30:24;20.00;75.80
19088;DHT22;9676;50.916;13.352;2023-04-16T08:33:14;20.00;76.20
19088;DHT22;9676;50.916;13.352;2023-04-16T08:36:04;20.00;76.20
19088;DHT22;9676;50.916;13.352;2023-04-16T08:38:53;20.10;76.30
19088;DHT22;9676;50.916;13.352;2023-04-16T08:41:45;20.20;76.10
19088;DHT22;9676;50.916;13.352;2023-04-16T08:44:42;20.20;75.20
19088;DHT22;9676;50.916;13.352;2023-04-16T08:47:36;20.30;74.30
19088;DHT22;9676;50.916;13.352;2023-04-16T08:50:26;20.50;75.80
19088;DHT22;9676;50.916;13.352;2023-04-16T08:53:17;20.60;75.70
19088;DHT22;9676;50.916;13.352;2023-04-16T08:56:10;20.70;74.80
19088;DHT22;9676;50.916;13.352;2023-04-16T08:58:59;20.80;74.50
19088;DHT22;9676;50.916;13.352;2023-04-16T09:01:56;20.80;74.30
19088;DHT22;9676;50.916;13.352;2023-04-16T09:04:47;20.80;72.70
19088;DHT22;9676;50.916;13.352;2023-04-16T09:07:38;20.80;73.00
19088;DHT22;9676;50.916;13.352;2023-04-16T09:10:30;20.80;72.70
19088;DHT22;9676;50.916;13.352;2023-04-16T09:13:20;20.80;73.30
19088;DHT22;9676;50.916;13.352;2023-04-16T09:16:12;20.80;72.50
19088;DHT22;9676;50.916;13.352;2023-04-16T09:19:04;20.80;72.30
19088;DHT22;9676;50.916;13.352;2023-04-16T09:21:54;20.90;72.30
19088;DHT22;9676;50.916;13.352;2023-04-16T09:24:44;20.90;72.90
19088;DHT22;9676;50.916;13.352;2023-04-16T09:27:35;21.00;72.70
19088;DHT22;9676;50.916;13.352;2023-04-16T09:30:26;21.20;72.80
19088;DHT22;9676;50.916;13.352;2023-04-16T09:33:17;21.30;72.90
19088;DHT22;9676;50.916;13.352;2023-04-16T09:36:11;21.40;72.50
19088;DHT22;9676;50.916;13.352;2023-04-16T09:39:01;21.50;72.10
19088;DHT22;9676;50.916;13.352;2023-04-16T09:41:52;21.60;72.00
19088;DHT22;9676;50.916;13.352;2023-04-16T09:44:43;21.70;71.50
19088;DHT22;9676;50.916;13.352;2023-04-16T09:47:40;21.70;70.90
19088;DHT22;9676;50.916;13.352;2023-04-16T09:50:31;21.80;69.70
19088;DHT22;9676;50.916;13.352;2023-04-16T09:53:24;21.80;70.50
19088;DHT22;9676;50.916;13.352;2023-04-16T09:56:14;21.90;69.50
19088;DHT22;9676;50.916;13.352;2023-04-16T09:59:03;21.90;70.00
19088;DHT22;9676;50.916;13.352;2023-04-16T10:01:58;21.90;69.90
19088;DHT22;9676;50.916;13.352;2023-04-16T10:05:03;22.00;68.90
19088;DHT22;9676;50.916;13.352;2023-04-16T10:07:59;22.00;69.40
19088;DHT22;9676;50.916;13.352;2023-04-16T10:10:50;22.10;69.00
19088;DHT22;9676;50.916;13.352;2023-04-16T10:13:41;22.00;68.20
19088;DHT22;9676;50.916;13.352;2023-04-16T10:16:38;22.00;68.20
19088;DHT22;9676;50.916;13.352;2023-04-16T10:19:29;22.00;67.50
19088;DHT22;9676;50.916;13.352;2023-04-16T10:22:19;21.90;67.40
19088;DHT22;9676;50.916;13.352;2023-04-16T10:25:09;21.90;67.20
19088;DHT22;9676;50.916;13.352;2023-04-16T10:27:59;21.90;66.80
19088;DHT22;9676;50.916;13.352;2023-04-16T10:30:50;21.90;66.70
19088;DHT22;9676;50.916;13.352;2023-04-16T10:33:42;21.80;66.40
19088;DHT22;9676;50.916;13.352;2023-04-16T10:36:35;21.80;65.90
19088;DHT22;9676;50.916;13.352;2023-04-16T10:39:27;21.80;65.40
19088;DHT22;9676;50.916;13.352;2023-04-16T10:42:17;21.80;66.00
19088;DHT22;9676;50.916;13.352;2023-04-16T10:45:10;21.80;66.00
19088;DHT22;9676;50.916;13.352;2023-04-16T10:48:03;21.90;65.40
19088;DHT22;9676;50.916;13.352;2023-04-16T10:50:57;21.90;65.30
19088;DHT22;9676;50.916;13.352;2023-04-16T10:53:47;22.10;65.70
19088;DHT22;9676;50.916;13.352;2023-04-16T10:56:36;22.10;65.90
19088;DHT22;9676;50.916;13.352;2023-04-16T10:59:30;22.20;66.30
19088;DHT22;9676;50.916;13.352;2023-04-16T11:02:27;22.30;65.90
19088;DHT22;9676;50.916;13.352;2023-04-16T11:05:20;22.50;66.20
19088;DHT22;9676;50.916;13.352;2023-04-16T11:08:14;22.60;66.90
19088;DHT22;9676;50.916;13.352;2023-04-16T11:11:04;22.80;67.20
19088;DHT22;9676;50.916;13.352;2023-04-16T11:13:55;23.00;68.50
19088;DHT22;9676;50.916;13.352;2023-04-16T11:16:44;23.30;68.50
19088;DHT22;9676;50.916;13.352;2023-04-16T11:19:35;23.50;68.10
19088;DHT22;9676;50.916;13.352;2023-04-16T11:22:25;23.70;67.70
19088;DHT22;9676;50.916;13.352;2023-04-16T11:25:20;23.90;67.90
19088;DHT22;9676;50.916;13.352;2023-04-16T11:28:10;24.10;65.60
19088;DHT22;9676;50.916;13.352;2023-04-16T11:31:00;24.20;65.70
19088;DHT22;9676;50.916;13.352;2023-04-16T11:33:58;24.30;64.70
19088;DHT22;9676;50.916;13.352;2023-04-16T11:36:49;24.30;63.90
19088;DHT22;9676;50.916;13.352;2023-04-16T11:39:49;24.30;63.30
19088;DHT22;9676;50.916;13.352;2023-04-16T11:42:41;24.30;61.40
19088;DHT22;9676;50.916;13.352;2023-04-16T11:45:31;24.30;62.60
19088;DHT22;9676;50.916;13.352;2023-04-16T11:48:20;24.30;62.50
19088;DHT22;9676;50.916;13.352;2023-04-16T11:51:09;24.30;62.40
19088;DHT22;9676;50.916;13.352;2023-04-16T11:53:59;24.40;62.20
19088;DHT22;9676;50.916;13.352;2023-04-16T11:56:49;24.40;62.00
19088;DHT22;9676;50.916;13.352;2023-04-16T11:59:45;24.30;61.70
19088;DHT22;9676;50.916;13.352;2023-04-16T12:03:09;24.30;60.90
19088;DHT22;9676;50.916;13.352;2023-04-16T12:06:07;24.30;61.60
19088;DHT22;9676;50.916;13.352;2023-04-16T12:08:56;24.20;60.50
19088;DHT22;9676;50.916;13.352;2023-04-16T12:11:46;24.10;61.20
19088;DHT22;9676;50.916;13.352;2023-04-16T12:14:35;24.00;60.70
19088;DHT22;9676;50.916;13.352;2023-04-16T12:17:25;23.90;60.60
19088;DHT22;9676;50.916;13.352;2023-04-16T12:20:15;23.80;59.90
19088;DHT22;9676;50.916;13.352;2023-04-16T12:23:04;23.60;60.00
19088;DHT22;9676;50.916;13.352;2023-04-16T12:25:55;23.50;60.10
19088;DHT22;9676;50.916;13.352;2023-04-16T12:28:49;23.40;60.10
19088;DHT22;9676;50.916;13.352;2023-04-16T12:31:39;23.40;60.20
19088;DHT22;9676;50.916;13.352;2023-04-16T12:34:30;23.40;60.10
19088;DHT22;9676;50.916;13.352;2023-04-16T12:37:36;23.40;59.80
19088;DHT22;9676;50.916;13.352;2023-04-16T12:40:26;23.40;60.00
19088;DHT22;9676;50.916;13.352;2023-04-16T12:43:15;23.50;60.10
19088;DHT22;9676;50.916;13.352;2023-04-16T12:46:04;23.50;59.90
19088;DHT22;9676;50.916;13.352;2023-04-16T12:48:54;23.50;59.60
19088;DHT22;9676;50.916;13.352;2023-04-16T12:51:45;23.60;59.60
19088;DHT22;9676;50.916;13.352;2023-04-16T12:54:35;23.60;59.30
19088;DHT22;9676;50.916;13.352;2023-04-16T12:57:24;23.60;59.20
19088;DHT22;9676;50.916;13.352;2023-04-16T13:00:16;23.70;59.80
19088;DHT22;9676;50.916;13.352;2023-04-16T13:03:05;23.70;59.00
19088;DHT22;9676;50.916;13.352;2023-04-16T13:05:55;23.60;58.70
19088;DHT22;9676;50.916;13.352;2023-04-16T13:08:46;23.50;58.20
19088;DHT22;9676;50.916;13.352;2023-04-16T13:11:35;23.40;57.80
19088;DHT22;9676;50.916;13.352;2023-04-16T13:14:24;23.20;57.70
19088;DHT22;9676;50.916;13.352;2023-04-16T13:17:14;23.00;57.60
19088;DHT22;9676;50.916;13.352;2023-04-16T13:20:04;22.80;57.40
19088;DHT22;9676;50.916;13.352;2023-04-16T13:22:54;22.60;57.30
19088;DHT22;9676;50.916;13.352;2023-04-16T13:25:45;22.60;57.50
19088;DHT22;9676;50.916;13.352;2023-04-16T13:28:37;22.50;57.50
19088;DHT22;9676;50.916;13.352;2023-04-16T13:31:26;22.50;57.80
19088;DHT22;9676;50.916;13.352;2023-04-16T13:34:16;22.50;57.90
19088;DHT22;9676;50.916;13.352;2023-04-16T13:37:05;22.40;57.80
19088;DHT22;9676;50.916;13.352;2023-04-16T13:39:55;22.40;57.70
19088;DHT22;9676;50.916;13.352;2023-04-16T13:42:45;22.30;57.40
19088;DHT22;9676;50.916;13.352;2023-04-16T13:45:36;22.20;57.20
19088;DHT22;9676;50.916;13.352;2023-04-16T13:48:27;22.20;57.20
19088;DHT22;9676;50.916;13.352;2023-04-16T13:51:16;22.10;57.30
19088;DHT22;9676;50.916;13.352;2023-04-16T13:54:06;22.10;57.50
19088;DHT22;9676;50.916;13.352;2023-04-16T13:56:55;22.00;57.50
19088;DHT22;9676;50.916;13.352;2023-04-16T13:59:46;22.00;57.60
19088;DHT22;9676;50.916;13.352;2023-04-16T14:02:35;21.90;57.80
19088;DHT22;9676;50.916;13.352;2023-04-16T14:05:25;21.90;58.00
19088;DHT22;9676;50.916;13.352;2023-04-16T14:08:14;21.90;58.00
19088;DHT22;9676;50.916;13.352;2023-04-16T14:11:04;21.90;57.80
19088;DHT22;9676;50.916;13.352;2023-04-16T14:13:54;21.90;57.70
19088;DHT22;9676;50.916;13.352;2023-04-16T14:16:44;21.80;57.50
19088;DHT22;9676;50.916;13.352;2023-04-16T14:19:34;21.70;57.40
19088;DHT22;9676;50.916;13.352;2023-04-16T14:22:23;21.70;57.40
19088;DHT22;9676;50.916;13.352;2023-04-16T14:25:13;21.60;57.20
19088;DHT22;9676;50.916;13.352;2023-04-16T14:28:02;21.50;57.10
19088;DHT22;9676;50.916;13.352;2023-04-16T14:30:52;21.40;57.10
19088;DHT22;9676;50.916;13.352;2023-04-16T14:33:42;21.30;57.10
19088;DHT22;9676;50.916;13.352;2023-04-16T14:36:32;21.20;57.10
19088;DHT22;9676;50.916;13.352;2023-04-16T14:39:22;21.10;57.20
19088;DHT22;9676;50.916;13.352;2023-04-16T14:42:12;21.00;57.10
19088;DHT22;9676;50.916;13.352;2023-04-16T14:45:01;20.90;56.90
19088;DHT22;9676;50.916;13.352;2023-04-16T14:47:53;20.80;56.90
19088;DHT22;9676;50.916;13.352;2023-04-16T14:50:44;20.80;57.00
19088;DHT22;9676;50.916;13.352;2023-04-16T14:53:35;20.60;57.00
19088;DHT22;9676;50.916;13.352;2023-04-16T14:56:24;20.60;57.30
19088;DHT22;9676;50.916;13.352;2023-04-16T14:59:14;20.50;57.40
19088;DHT22;9676;50.916;13.352;2023-04-16T15:02:03;20.50;57.50
19088;DHT22;9676;50.916;13.352;2023-04-16T15:04:53;20.50;57.60
19088;DHT22;9676;50.916;13.352;2023-04-16T15:07:44;20.40;57.50
19088;DHT22;9676;50.916;13.352;2023-04-16T15:10:34;20.40;57.50
19088;DHT22;9676;50.916;13.352;2023-04-16T15:13:24;20.30;57.60
19088;DHT22;9676;50.916;13.352;2023-04-16T15:16:20;20.20;57.70
19088;DHT22;9676;50.916;13.352;2023-04-16T15:19:09;20.10;57.70
19088;DHT22;9676;50.916;13.352;2023-04-16T15:21:59;20.00;57.60
19088;DHT22;9676;50.916;13.352;2023-04-16T15:24:50;19.80;57.60
19088;DHT22;9676;50.916;13.352;2023-04-16T15:27:40;19.70;57.90
19088;DHT22;9676;50.916;13.352;2023-04-16T15:30:30;19.60;58.10
19088;DHT22;9676;50.916;13.352;2023-04-16T15:33:20;19.50;58.10
19088;DHT22;9676;50.916;13.352;2023-04-16T15:36:09;19.40;58.20
19088;DHT22;9676;50.916;13.352;2023-04-16T15:38:59;19.30;58.20
19088;DHT22;9676;50.916;13.352;2023-04-16T15:41:50;19.20;58.20
19088;DHT22;9676;50.916;13.352;2023-04-16T15:44:48;19.10;58.30
19088;DHT22;9676;50.916;13.352;2023-04-16T15:47:37;19.10;58.40
19088;DHT22;9676;50.916;13.352;2023-04-16T15:50:28;19.00;58.30
19088;DHT22;9676;50.916;13.352;2023-04-16T15:53:18;18.90;58.30
19088;DHT22;9676;50.916;13.352;2023-04-16T15:56:07;18.80;58.50
19088;DHT22;9676;50.916;13.352;2023-04-16T15:58:58;18.80;58.50
19088;DHT22;9676;50.916;13.352;2023-04-16T16:01:48;18.70;58.50
19088;DHT22;9676;50.916;13.352;2023-04-16T16:04:37;18.70;58.70
19088;DHT22;9676;50.916;13.352;2023-04-16T16:07:32;18.70;58.80
19088;DHT22;9676;50.916;13.352;2023-04-16T16:10:23;18.60;58.60
19088;DHT22;9676;50.916;13.352;2023-04-16T16:13:13;18.60;58.60
19088;DHT22;9676;50.916;13.352;2023-04-16T16:16:06;18.50;58.50
19088;DHT22;9676;50.916;13.352;2023-04-16T16:18:55;18.50;58.70
19088;DHT22;9676;50.916;13.352;2023-04-16T16:21:45;18.50;58.80
19088;DHT22;9676;50.916;13.352;2023-04-16T16:24:34;18.40;58.90
19088;DHT22;9676;50.916;13.352;2023-04-16T16:27:24;18.40;58.90
19088;DHT22;9676;50.916;13.352;2023-04-16T16:30:13;18.40;58.80
19088;DHT22;9676;50.916;13.352;2023-04-16T16:33:04;18.30;58.70
19088;DHT22;9676;50.916;13.352;2023-04-16T16:35:53;18.30;58.80
19088;DHT22;9676;50.916;13.352;2023-04-16T16:38:43;18.30;58.90
19088;DHT22;9676;50.916;13.352;2023-04-16T16:41:34;18.20;58.90
19088;DHT22;9676;50.916;13.352;2023-04-16T16:44:28;18.10;58.80
19088;DHT22;9676;50.916;13.352;2023-04-16T16:47:18;18.10;58.80
19088;DHT22;9676;50.916;13.352;2023-04-16T16:50:09;18.10;58.80
19088;DHT22;9676;50.916;13.352;2023-04-16T16:52:59;18.00;58.90
19088;DHT22;9676;50.916;13.352;2023-04-16T16:55:49;17.90;58.80
19088;DHT22;9676;50.916;13.352;2023-04-16T16:58:39;17.90;58.80
19088;DHT22;9676;50.916;13.352;2023-04-16T17:01:28;17.80;58.80
19088;DHT22;9676;50.916;13.352;2023-04-16T17:04:18;17.70;58.80
19088;DHT22;9676;50.916;13.352;2023-04-16T17:07:09;17.50;58.80
19088;DHT22;9676;50.916;13.352;2023-04-16T17:09:58;17.40;58.90
19088;DHT22;9676;50.916;13.352;2023-04-16T17:12:52;17.30;59.00
19088;DHT22;9676;50.916;13.352;2023-04-16T17:15:41;17.20;59.10
19088;DHT22;9676;50.916;13.352;2023-04-16T17:18:30;17.10;59.30
19088;DHT22;9676;50.916;13.352;2023-04-16T17:21:20;17.00;59.30
19088;DHT22;9676;50.916;13.352;2023-04-16T17:24:11;16.80;59.30
19088;DHT22;9676;50.916;13.352;2023-04-16T17:27:01;16.70;59.50
19088;DHT22;9676;50.916;13.352;2023-04-16T17:29:51;16.50;59.40
19088;DHT22;9676;50.916;13.352;2023-04-16T17:32:46;16.40;59.60
19088;DHT22;9676;50.916;13.352;2023-04-16T17:35:37;16.30;59.70
19088;DHT22;9676;50.916;13.352;2023-04-16T17:38:27;16.10;59.80
19088;DHT22;9676;50.916;13.352;2023-04-16T17:41:18;16.00;59.90
19088;DHT22;9676;50.916;13.352;2023-04-16T17:44:08;16.00;60.20
19088;DHT22;9676;50.916;13.352;2023-04-16T17:46:58;15.90;60.40
19088;DHT22;9676;50.916;13.352;2023-04-16T17:49:51;15.80;60.50
19088;DHT22;9676;50.916;13.352;2023-04-16T17:52:42;15.80;60.80
19088;DHT22;9676;50.916;13.352;2023-04-16T17:55:31;15.70;60.70
19088;DHT22;9676;50.916;13.352;2023-04-16T17:58:22;15.70;60.90
19088;DHT22;9676;50.916;13.352;2023-04-16T18:01:13;15.60;61.00